| time (UTC) | temp C | wind direction | speed KPH | gust KPH | rain 1hr cm | rain 24hr cm | rain mn cm | humidity % | barometer mb |
| 20260507080014 | -17 | 0.0 | 0.0 | 0.00 | 1.09 | 0.00 | 1005.2 | ||
| 20260507074522 | -17 | 0.0 | 0.0 | 0.00 | 1.09 | 0.00 | 1005.9 | ||
| 20260507073002 | -17 | 0.0 | 0.0 | 0.00 | 1.09 | 0.00 | 1005.7 | ||
| 20260507071609 | -17 | 0.0 | 0.0 | 0.00 | 1.09 | 0.00 | 1005.9 | ||
| 20260507070052 | -17 | 0.0 | 0.0 | 0.00 | 1.09 | 0.00 | 1005.5 | ||
| 20260507064552 | -17 | 0.0 | 0.0 | 0.00 | 1.09 | 0.00 | 1005.3 | ||
| 20260507063042 | -17 | 0.0 | 0.0 | 0.00 | 1.09 | 0.00 | 1004.9 | ||
| 20260507061538 | -17 | 0.0 | 0.0 | 0.00 | 1.09 | 0.00 | 1004.7 | ||
| 20260507060031 | -17 | 0.0 | 0.0 | 0.00 | 1.09 | 0.00 | 1004.8 | ||
| 20260507054526 | -17 | 0.0 | 0.0 | 0.00 | 1.09 | 0.00 | 1004.7 | ||
| 20260507053020 | -17 | 0.0 | 0.0 | 0.00 | 1.09 | 0.00 | 1004.6 | ||
| 20260507051516 | -17 | 0.0 | 0.0 | 0.00 | 1.09 | 0.00 | 1004.3 | ||
| 20260507050011 | -17 | 0.0 | 0.0 | 0.00 | 1.09 | 0.00 | 1004.6 | ||
| 20260507044505 | -17 | 0.0 | 0.0 | 0.00 | 1.09 | 0.00 | 1004.8 | ||
| 20260507043001 | -17 | 0.0 | 0.0 | 0.00 | 1.09 | 0.00 | 1004.9 | ||
| 20260507041602 | -17 | 0.0 | 0.0 | 0.00 | 1.09 | 0.00 | 1004.8 | ||
| 20260507040059 | -17 | 0.0 | 0.0 | 0.00 | 1.09 | 0.00 | 1005.1 | ||
| 20260507034556 | -17 | 0.0 | 0.0 | 0.00 | 1.09 | 1.09 | 1004.7 | ||
| 20260507033048 | -17 | 0.0 | 0.0 | 0.00 | 1.09 | 1.09 | 1004.8 | ||
| 20260507031546 | -17 | 0.0 | 0.0 | 0.00 | 1.09 | 1.09 | 1004.4 | ||
| 20260507030048 | -17 | 0.0 | 0.0 | 0.00 | 1.09 | 1.09 | 1004.3 | ||
| 20260507024544 | -17 | 0.0 | 0.0 | 0.00 | 1.09 | 1.09 | 1003.9 | ||
| 20260507023043 | -17 | 0.0 | 0.0 | 0.00 | 1.09 | 1.09 | 1004.3 | ||
| 20260507021545 | -17 | 0.0 | 0.0 | 0.00 | 1.09 | 1.09 | 1003.8 | ||
| 20260507020038 | -17 | 0.0 | 0.0 | 0.00 | 1.09 | 1.09 | 1004.0 | ||
| 20260507014534 | -17 | 0.0 | 0.0 | 0.00 | 1.09 | 1.09 | 1004.0 | ||
| 20260507013035 | -17 | 0.0 | 0.0 | 0.00 | 1.09 | 1.09 | 1003.9 | ||
| 20260507011535 | -17 | 0.0 | 0.0 | 0.00 | 1.09 | 1.09 | 1004.2 | ||
| 20260507010018 | -17 | 0.0 | 0.0 | 0.00 | 1.09 | 1.09 | 1004.0 | ||
| 20260507004517 | -17 | 0.0 | 0.0 | 0.03 | 1.09 | 1.09 | 1003.9 | ||
| 20260507003009 | -17 | 150 | 4.8 | 14.5 | 0.03 | 1.09 | 1.09 | 1003.3 | |
| 20260507001504 | 13 | 157 | 8.0 | 14.5 | 0.08 | 1.09 | 1.09 | 98 | 1003.3 |
| 20260507000003 | 13 | 158 | 4.8 | 14.5 | 0.08 | 1.12 | 1.09 | 98 | 1003.3 |
| 20260506234504 | 13 | 150 | 6.4 | 14.5 | 0.13 | 1.09 | 1.07 | 98 | 1003.3 |
| 20260506233059 | 13 | 171 | 4.8 | 14.5 | 0.20 | 1.09 | 1.07 | 98 | 1003.2 |
| 20260506231557 | 13 | 188 | 6.4 | 12.9 | 0.20 | 1.04 | 1.02 | 98 | 1003.3 |
| 20260506230054 | 13 | 145 | 4.8 | 9.7 | 0.23 | 1.04 | 1.02 | 98 | 1003.5 |
| 20260506224550 | 13 | 131 | 3.2 | 9.7 | 0.18 | 1.02 | 0.97 | 97 | 1003.5 |
| 20260506223046 | 13 | 151 | 1.6 | 8.0 | 0.10 | 0.91 | 0.86 | 97 | 1003.7 |
| 20260506221544 | 14 | 129 | 4.8 | 9.7 | 0.03 | 0.84 | 0.79 | 97 | 1003.9 |
| 20260506220051 | 14 | 143 | 3.2 | 8.0 | 0.05 | 0.84 | 0.79 | 97 | 1004.1 |
| 20260506214539 | 14 | 150 | 1.6 | 9.7 | 0.08 | 0.84 | 0.79 | 97 | 1004.3 |
| 20260506213035 | 14 | 144 | 3.2 | 9.7 | 0.10 | 0.81 | 0.76 | 97 | 1004.3 |
| 20260506211536 | 14 | 234 | 3.2 | 12.9 | 0.15 | 0.81 | 0.76 | 97 | 1004.4 |
| 20260506210031 | 13 | 150 | 4.8 | 12.9 | 0.15 | 0.79 | 0.71 | 97 | 1004.5 |
| 20260506204530 | 13 | 163 | 3.2 | 9.7 | 0.18 | 0.76 | 0.71 | 97 | 1004.4 |
| 20260506203034 | 13 | 192 | 3.2 | 9.7 | 0.18 | 0.71 | 0.66 | 97 | 1004.2 |
| 20260506201524 | 13 | 141 | 3.2 | 9.7 | 0.15 | 0.66 | 0.61 | 97 | 1004.3 |
| 20260506200025 | 13 | 150 | 3.2 | 8.0 | 0.15 | 0.61 | 0.56 | 97 | 1004.6 |
| 20260506194518 | 13 | 123 | 3.2 | 11.3 | 0.20 | 0.58 | 0.53 | 96 | 1004.9 |
| 20260506193017 | 13 | 136 | 1.6 | 6.4 | 0.20 | 0.53 | 0.48 | 96 | 1004.9 |
| 20260506191517 | 13 | 129 | 3.2 | 8.0 | 0.25 | 0.51 | 0.46 | 96 | 1004.9 |
| 20260506190010 | 13 | 148 | 1.6 | 8.0 | 0.25 | 0.46 | 0.41 | 95 | 1005.1 |
| 20260506184508 | 13 | 141 | 3.2 | 6.4 | 0.28 | 0.38 | 0.33 | 95 | 1005.1 |
| 20260506183009 | 13 | 123 | 1.6 | 6.4 | 0.20 | 0.30 | 0.25 | 94 | 1005.2 |
| 20260506181503 | 14 | 133 | 1.6 | 4.8 | 0.15 | 0.25 | 0.20 | 93 | 1005.5 |
| 20260506180101 | 14 | 98 | 1.6 | 9.7 | 0.10 | 0.20 | 0.15 | 92 | 1005.2 |
| 20260506180002 | 14 | 129 | 3.2 | 9.7 | 0.10 | 0.20 | 0.15 | 91 | 1005.2 |
| 20260506174608 | 15 | 134 | 0.0 | 6.4 | 0.03 | 0.10 | 0.05 | 90 | 1005.2 |
| 20260506173057 | 15 | 139 | 0.0 | 3.2 | 0.03 | 0.10 | 0.05 | 91 | 1005.4 |
| 20260506171557 | 15 | 95 | 0.0 | 3.2 | 0.03 | 0.10 | 0.05 | 90 | 1005.8 |
| 20260506170048 | 15 | 137 | 1.6 | 4.8 | 0.05 | 0.10 | 0.05 | 90 | 1006.1 |
| 20260506164547 | 15 | 172 | 3.2 | 9.7 | 0.03 | 0.08 | 0.03 | 89 | 1006.5 |
| 20260506163055 | 15 | 146 | 1.6 | 6.4 | 0.03 | 0.08 | 0.03 | 89 | 1006.7 |
| 20260506161538 | 15 | 191 | 1.6 | 6.4 | 0.03 | 0.08 | 0.03 | 88 | 1007.0 |
| 20260506160036 | 15 | 158 | 0.0 | 6.4 | 0.00 | 0.05 | 0.00 | 87 | 1007.2 |
| 20260506154537 | 15 | 193 | 1.6 | 6.4 | 0.00 | 0.05 | 0.00 | 83 | 1007.5 |
| 20260506153032 | 15 | 120 | 0.0 | 8.0 | 0.00 | 0.05 | 0.00 | 83 | 1007.5 |
| 20260506151537 | 15 | 216 | 1.6 | 8.0 | 0.00 | 0.05 | 0.00 | 83 | 1007.3 |
| 20260506150026 | 15 | 160 | 1.6 | 6.4 | 0.00 | 0.05 | 0.00 | 83 | 1007.3 |
| 20260506144523 | 15 | 128 | 3.2 | 11.3 | 0.00 | 0.05 | 0.00 | 82 | 1007.3 |
| 20260506143021 | 15 | 158 | 1.6 | 8.0 | 0.00 | 0.05 | 0.00 | 83 | 1007.2 |
| 20260506141517 | 15 | 160 | 0.0 | 4.8 | 0.00 | 0.05 | 0.00 | 84 | 1007.2 |
| 20260506140022 | 14 | 152 | 1.6 | 8.0 | 0.00 | 0.05 | 0.00 | 84 | 1007.5 |
| 20260506134512 | 14 | 191 | 1.6 | 4.8 | 0.00 | 0.05 | 0.00 | 84 | 1007.6 |
| 20260506133011 | 14 | 181 | 1.6 | 3.2 | 0.00 | 0.05 | 0.00 | 82 | 1007.6 |
| 20260506131517 | 14 | 198 | 0.0 | 1.6 | 0.00 | 0.05 | 0.00 | 83 | 1007.5 |
| 20260506130006 | 14 | 171 | 0.0 | 3.2 | 0.00 | 0.05 | 0.00 | 81 | 1007.6 |
| 20260506124504 | 15 | 191 | 0.0 | 3.2 | 0.00 | 0.05 | 0.00 | 82 | 1007.8 |
| 20260506123007 | 14 | 89 | 0.0 | 3.2 | 0.00 | 0.05 | 0.00 | 82 | 1007.8 |
| 20260506121613 | 14 | 103 | 0.0 | 3.2 | 0.00 | 0.05 | 0.00 | 84 | 1007.9 |
| 20260506120056 | 14 | 148 | 0.0 | 3.2 | 0.00 | 0.05 | 0.00 | 85 | 1008.0 |
| 20260506114557 | 13 | 121 | 0.0 | 6.4 | 0.00 | 0.05 | 0.00 | 86 | 1008.2 |
| 20260506113154 | 14 | 207 | 1.6 | 3.2 | 0.00 | 0.05 | 0.00 | 85 | 1008.2 |
| 20260506111551 | 13 | 163 | 1.6 | 4.8 | 0.00 | 0.05 | 0.00 | 85 | 1008.1 |
| 20260506110045 | 13 | 84 | 0.0 | 6.4 | 0.00 | 0.05 | 0.00 | 87 | 1008.2 |
| 20260506104547 | 12 | 84 | 1.6 | 6.4 | 0.00 | 0.05 | 0.00 | 87 | 1008.2 |
| 20260506103039 | 12 | 102 | 1.6 | 9.7 | 0.00 | 0.05 | 0.00 | 88 | 1008.1 |
| 20260506101533 | -17 | 0.0 | 0.0 | 0.00 | 0.05 | 0.00 | 1008.1 | ||
| 20260506100045 | -17 | 0.0 | 0.0 | 0.00 | 0.05 | 0.00 | 1008.1 |